sensor_id;sensor_type;location;lat;lon;timestamp;temperature;humidity
67054;SHT31;53960;51.826;5.850;2023-07-29T00:00:30;19.01;90.07
67054;SHT31;53960;51.826;5.850;2023-07-29T00:02:55;19.03;90.15
67054;SHT31;53960;51.826;5.850;2023-07-29T00:05:21;19.11;89.96
67054;SHT31;53960;51.826;5.850;2023-07-29T00:07:46;19.10;89.95
67054;SHT31;53960;51.826;5.850;2023-07-29T00:10:11;19.03;90.02
67054;SHT31;53960;51.826;5.850;2023-07-29T00:12:37;19.03;89.99
67054;SHT31;53960;51.826;5.850;2023-07-29T00:15:02;18.94;90.26
67054;SHT31;53960;51.826;5.850;2023-07-29T00:17:28;18.99;90.13
67054;SHT31;53960;51.826;5.850;2023-07-29T00:19:53;18.97;89.99
67054;SHT31;53960;51.826;5.850;2023-07-29T00:22:18;18.99;89.62
67054;SHT31;53960;51.826;5.850;2023-07-29T00:24:44;18.94;89.64
67054;SHT31;53960;51.826;5.850;2023-07-29T00:27:09;18.96;89.68
67054;SHT31;53960;51.826;5.850;2023-07-29T00:29:34;18.94;89.47
67054;SHT31;53960;51.826;5.850;2023-07-29T00:32:00;18.83;89.70
67054;SHT31;53960;51.826;5.850;2023-07-29T00:34:25;18.87;89.32
67054;SHT31;53960;51.826;5.850;2023-07-29T00:36:50;18.83;89.26
67054;SHT31;53960;51.826;5.850;2023-07-29T00:39:16;18.77;89.45
67054;SHT31;53960;51.826;5.850;2023-07-29T00:41:41;18.77;89.43
67054;SHT31;53960;51.826;5.850;2023-07-29T00:44:07;18.74;89.47
67054;SHT31;53960;51.826;5.850;2023-07-29T00:46:34;18.76;89.39
67054;SHT31;53960;51.826;5.850;2023-07-29T00:49:02;18.70;89.38
67054;SHT31;53960;51.826;5.850;2023-07-29T00:51:28;18.59;89.92
67054;SHT31;53960;51.826;5.850;2023-07-29T00:53:53;18.57;90.03
67054;SHT31;53960;51.826;5.850;2023-07-29T00:56:18;18.72;89.99
67054;SHT31;53960;51.826;5.850;2023-07-29T00:58:44;18.66;90.07
67054;SHT31;53960;51.826;5.850;2023-07-29T01:01:10;18.69;90.04
67054;SHT31;53960;51.826;5.850;2023-07-29T01:03:36;18.69;90.17
67054;SHT31;53960;51.826;5.850;2023-07-29T01:08:49;18.67;90.42
67054;SHT31;53960;51.826;5.850;2023-07-29T01:14:03;18.80;90.14
67054;SHT31;53960;51.826;5.850;2023-07-29T01:16:40;18.84;89.94
67054;SHT31;53960;51.826;5.850;2023-07-29T01:19:14;18.80;90.02
67054;SHT31;53960;51.826;5.850;2023-07-29T01:21:41;18.79;89.91
67054;SHT31;53960;51.826;5.850;2023-07-29T01:24:07;18.79;89.98
67054;SHT31;53960;51.826;5.850;2023-07-29T01:26:32;18.80;89.95
67054;SHT31;53960;51.826;5.850;2023-07-29T01:28:58;18.72;89.98
67054;SHT31;53960;51.826;5.850;2023-07-29T01:31:33;18.69;90.27
67054;SHT31;53960;51.826;5.850;2023-07-29T01:34:13;18.77;90.04
67054;SHT31;53960;51.826;5.850;2023-07-29T01:36:41;18.72;89.85
67054;SHT31;53960;51.826;5.850;2023-07-29T01:39:08;18.72;89.88
67054;SHT31;53960;51.826;5.850;2023-07-29T01:41:36;18.67;90.08
67054;SHT31;53960;51.826;5.850;2023-07-29T01:44:02;18.70;90.24
67054;SHT31;53960;51.826;5.850;2023-07-29T01:46:28;18.66;90.55
67054;SHT31;53960;51.826;5.850;2023-07-29T01:48:54;18.63;90.85
67054;SHT31;53960;51.826;5.850;2023-07-29T01:51:19;18.70;90.99
67054;SHT31;53960;51.826;5.850;2023-07-29T01:53:45;18.76;90.86
67054;SHT31;53960;51.826;5.850;2023-07-29T01:56:11;18.74;90.73
67054;SHT31;53960;51.826;5.850;2023-07-29T01:58:36;18.72;91.10
67054;SHT31;53960;51.826;5.850;2023-07-29T02:01:01;18.80;90.90
67054;SHT31;53960;51.826;5.850;2023-07-29T02:03:27;18.82;90.82
67054;SHT31;53960;51.826;5.850;2023-07-29T02:05:53;18.83;90.63
67054;SHT31;53960;51.826;5.850;2023-07-29T02:08:18;18.84;90.45
67054;SHT31;53960;51.826;5.850;2023-07-29T02:10:43;18.80;90.79
67054;SHT31;53960;51.826;5.850;2023-07-29T02:13:10;18.83;90.78
67054;SHT31;53960;51.826;5.850;2023-07-29T02:15:35;18.87;90.79
67054;SHT31;53960;51.826;5.850;2023-07-29T02:18:01;18.84;90.78
67054;SHT31;53960;51.826;5.850;2023-07-29T02:20:27;18.79;90.98
67054;SHT31;53960;51.826;5.850;2023-07-29T02:22:52;18.79;90.98
67054;SHT31;53960;51.826;5.850;2023-07-29T02:25:18;18.82;90.99
67054;SHT31;53960;51.826;5.850;2023-07-29T02:27:43;18.86;90.84
67054;SHT31;53960;51.826;5.850;2023-07-29T02:30:08;18.84;90.57
67054;SHT31;53960;51.826;5.850;2023-07-29T02:32:37;18.86;90.59
67054;SHT31;53960;51.826;5.850;2023-07-29T02:35:03;18.84;90.63
67054;SHT31;53960;51.826;5.850;2023-07-29T02:37:30;18.90;90.50
67054;SHT31;53960;51.826;5.850;2023-07-29T02:39:55;18.87;90.42
67054;SHT31;53960;51.826;5.850;2023-07-29T02:42:20;18.90;90.21
67054;SHT31;53960;51.826;5.850;2023-07-29T02:44:46;18.91;90.05
67054;SHT31;53960;51.826;5.850;2023-07-29T02:47:11;18.93;89.57
67054;SHT31;53960;51.826;5.850;2023-07-29T02:49:37;18.94;89.65
67054;SHT31;53960;51.826;5.850;2023-07-29T02:52:02;18.94;89.50
67054;SHT31;53960;51.826;5.850;2023-07-29T02:54:28;18.90;89.50
67054;SHT31;53960;51.826;5.850;2023-07-29T02:56:53;18.91;89.43
67054;SHT31;53960;51.826;5.850;2023-07-29T02:59:19;18.89;89.75
67054;SHT31;53960;51.826;5.850;2023-07-29T03:01:45;18.89;89.80
67054;SHT31;53960;51.826;5.850;2023-07-29T03:04:10;18.86;89.39
67054;SHT31;53960;51.826;5.850;2023-07-29T03:06:38;18.91;89.42
67054;SHT31;53960;51.826;5.850;2023-07-29T03:09:03;18.91;89.21
67054;SHT31;53960;51.826;5.850;2023-07-29T03:11:29;18.94;88.86
67054;SHT31;53960;51.826;5.850;2023-07-29T03:13:54;18.93;88.91
67054;SHT31;53960;51.826;5.850;2023-07-29T03:16:19;18.86;88.93
67054;SHT31;53960;51.826;5.850;2023-07-29T03:18:45;18.84;88.47
67054;SHT31;53960;51.826;5.850;2023-07-29T03:21:10;18.89;88.38
67054;SHT31;53960;51.826;5.850;2023-07-29T03:23:38;18.90;87.84
67054;SHT31;53960;51.826;5.850;2023-07-29T03:26:04;18.91;87.98
67054;SHT31;53960;51.826;5.850;2023-07-29T03:28:40;18.86;87.96
67054;SHT31;53960;51.826;5.850;2023-07-29T03:31:05;18.79;88.00
67054;SHT31;53960;51.826;5.850;2023-07-29T03:33:31;18.74;88.24
67054;SHT31;53960;51.826;5.850;2023-07-29T03:35:56;18.70;88.52
67054;SHT31;53960;51.826;5.850;2023-07-29T03:38:21;18.66;88.18
67054;SHT31;53960;51.826;5.850;2023-07-29T03:40:47;18.66;88.31
67054;SHT31;53960;51.826;5.850;2023-07-29T03:43:12;18.67;87.92
67054;SHT31;53960;51.826;5.850;2023-07-29T03:45:39;18.57;88.29
67054;SHT31;53960;51.826;5.850;2023-07-29T03:48:05;18.59;88.20
67054;SHT31;53960;51.826;5.850;2023-07-29T03:50:33;18.55;88.20
67054;SHT31;53960;51.826;5.850;2023-07-29T03:52:58;18.59;87.64
67054;SHT31;53960;51.826;5.850;2023-07-29T03:55:24;18.56;87.50
67054;SHT31;53960;51.826;5.850;2023-07-29T03:57:49;18.57;87.32
67054;SHT31;53960;51.826;5.850;2023-07-29T04:00:15;18.49;87.52
67054;SHT31;53960;51.826;5.850;2023-07-29T04:02:41;18.48;87.20
67054;SHT31;53960;51.826;5.850;2023-07-29T04:05:07;18.45;87.14
67054;SHT31;53960;51.826;5.850;2023-07-29T04:07:34;18.43;87.10
67054;SHT31;53960;51.826;5.850;2023-07-29T04:10:00;18.43;86.68
67054;SHT31;53960;51.826;5.850;2023-07-29T04:12:26;18.45;86.38
67054;SHT31;53960;51.826;5.850;2023-07-29T04:14:51;18.43;86.45
67054;SHT31;53960;51.826;5.850;2023-07-29T04:17:16;18.38;86.60
67054;SHT31;53960;51.826;5.850;2023-07-29T04:19:42;18.45;85.96
67054;SHT31;53960;51.826;5.850;2023-07-29T04:22:07;18.35;86.53
67054;SHT31;53960;51.826;5.850;2023-07-29T04:24:32;18.33;86.37
67054;SHT31;53960;51.826;5.850;2023-07-29T04:26:58;18.29;86.40
67054;SHT31;53960;51.826;5.850;2023-07-29T04:29:23;18.25;86.33
67054;SHT31;53960;51.826;5.850;2023-07-29T04:31:52;18.24;86.74
67054;SHT31;53960;51.826;5.850;2023-07-29T04:34:18;18.24;86.63
67054;SHT31;53960;51.826;5.850;2023-07-29T04:36:44;18.21;86.89
67054;SHT31;53960;51.826;5.850;2023-07-29T04:39:10;18.29;86.18
67054;SHT31;53960;51.826;5.850;2023-07-29T04:41:35;18.31;85.79
67054;SHT31;53960;51.826;5.850;2023-07-29T04:44:01;18.38;85.66
67054;SHT31;53960;51.826;5.850;2023-07-29T04:46:26;18.39;85.47
67054;SHT31;53960;51.826;5.850;2023-07-29T04:48:52;18.38;85.41
67054;SHT31;53960;51.826;5.850;2023-07-29T04:51:17;18.35;85.72
67054;SHT31;53960;51.826;5.850;2023-07-29T04:53:42;18.35;85.71
67054;SHT31;53960;51.826;5.850;2023-07-29T04:56:08;18.38;85.57
67054;SHT31;53960;51.826;5.850;2023-07-29T04:58:33;18.35;85.61
67054;SHT31;53960;51.826;5.850;2023-07-29T05:01:01;18.42;85.01
67054;SHT31;53960;51.826;5.850;2023-07-29T05:03:26;18.36;85.18
67054;SHT31;53960;51.826;5.850;2023-07-29T05:05:51;18.38;85.22
67054;SHT31;53960;51.826;5.850;2023-07-29T05:08:18;18.46;84.16
67054;SHT31;53960;51.826;5.850;2023-07-29T05:10:44;18.51;84.23
67054;SHT31;53960;51.826;5.850;2023-07-29T05:13:10;18.42;84.28
67054;SHT31;53960;51.826;5.850;2023-07-29T05:15:35;18.42;84.53
67054;SHT31;53960;51.826;5.850;2023-07-29T05:18:00;18.49;84.31
67054;SHT31;53960;51.826;5.850;2023-07-29T05:20:25;18.46;84.27
67054;SHT31;53960;51.826;5.850;2023-07-29T05:22:51;18.51;84.23
67054;SHT31;53960;51.826;5.850;2023-07-29T05:25:16;18.59;84.18
67054;SHT31;53960;51.826;5.850;2023-07-29T05:27:41;18.56;84.14
67054;SHT31;53960;51.826;5.850;2023-07-29T05:30:07;18.59;84.44
67054;SHT31;53960;51.826;5.850;2023-07-29T05:32:33;18.59;84.28
67054;SHT31;53960;51.826;5.850;2023-07-29T05:34:58;18.56;83.94
67054;SHT31;53960;51.826;5.850;2023-07-29T05:37:23;18.52;84.06
67054;SHT31;53960;51.826;5.850;2023-07-29T05:39:49;18.52;84.04
67054;SHT31;53960;51.826;5.850;2023-07-29T05:42:14;18.46;84.22
67054;SHT31;53960;51.826;5.850;2023-07-29T05:44:39;18.53;84.15
67054;SHT31;53960;51.826;5.850;2023-07-29T05:47:05;18.52;84.11
67054;SHT31;53960;51.826;5.850;2023-07-29T05:49:30;18.53;84.19
67054;SHT31;53960;51.826;5.850;2023-07-29T05:51:56;18.62;83.79
67054;SHT31;53960;51.826;5.850;2023-07-29T05:54:21;18.64;83.90
67054;SHT31;53960;51.826;5.850;2023-07-29T05:56:47;18.66;83.61
67054;SHT31;53960;51.826;5.850;2023-07-29T05:59:12;18.63;84.10
67054;SHT31;53960;51.826;5.850;2023-07-29T06:01:37;18.60;83.76
67054;SHT31;53960;51.826;5.850;2023-07-29T06:04:03;18.55;84.04
67054;SHT31;53960;51.826;5.850;2023-07-29T06:06:28;18.57;84.21
67054;SHT31;53960;51.826;5.850;2023-07-29T06:08:54;18.57;84.31
67054;SHT31;53960;51.826;5.850;2023-07-29T06:11:19;18.59;84.61
67054;SHT31;53960;51.826;5.850;2023-07-29T06:13:47;18.74;83.99
67054;SHT31;53960;51.826;5.850;2023-07-29T06:16:12;18.82;83.90
67054;SHT31;53960;51.826;5.850;2023-07-29T06:18:37;18.87;83.71
67054;SHT31;53960;51.826;5.850;2023-07-29T06:21:03;18.90;83.43
67054;SHT31;53960;51.826;5.850;2023-07-29T06:23:32;18.97;83.10
67054;SHT31;53960;51.826;5.850;2023-07-29T06:25:58;19.03;82.87
67054;SHT31;53960;51.826;5.850;2023-07-29T06:28:25;19.17;82.67
67054;SHT31;53960;51.826;5.850;2023-07-29T06:30:51;19.22;82.66
67054;SHT31;53960;51.826;5.850;2023-07-29T06:33:16;19.24;82.96
67054;SHT31;53960;51.826;5.850;2023-07-29T06:35:41;19.31;82.49
67054;SHT31;53960;51.826;5.850;2023-07-29T06:38:07;19.34;82.33
67054;SHT31;53960;51.826;5.850;2023-07-29T06:40:32;19.38;82.43
67054;SHT31;53960;51.826;5.850;2023-07-29T06:42:57;19.48;82.00
67054;SHT31;53960;51.826;5.850;2023-07-29T06:45:23;19.49;82.38
67054;SHT31;53960;51.826;5.850;2023-07-29T06:47:48;19.52;82.04
67054;SHT31;53960;51.826;5.850;2023-07-29T06:50:13;19.54;82.45
67054;SHT31;53960;51.826;5.850;2023-07-29T06:52:39;19.57;82.52
67054;SHT31;53960;51.826;5.850;2023-07-29T06:55:05;19.63;82.15
67054;SHT31;53960;51.826;5.850;2023-07-29T06:57:31;19.75;82.06
67054;SHT31;53960;51.826;5.850;2023-07-29T06:59:56;19.83;81.92
67054;SHT31;53960;51.826;5.850;2023-07-29T07:02:22;19.83;81.95
67054;SHT31;53960;51.826;5.850;2023-07-29T07:04:47;19.87;81.42
67054;SHT31;53960;51.826;5.850;2023-07-29T07:07:12;19.82;81.38
67054;SHT31;53960;51.826;5.850;2023-07-29T07:09:38;19.86;81.63
67054;SHT31;53960;51.826;5.850;2023-07-29T07:12:03;19.82;81.97
67054;SHT31;53960;51.826;5.850;2023-07-29T07:14:29;19.82;81.58
67054;SHT31;53960;51.826;5.850;2023-07-29T07:16:54;19.75;81.63
67054;SHT31;53960;51.826;5.850;2023-07-29T07:19:19;19.78;82.07
67054;SHT31;53960;51.826;5.850;2023-07-29T07:21:45;19.85;81.47
67054;SHT31;53960;51.826;5.850;2023-07-29T07:24:10;19.99;81.41
67054;SHT31;53960;51.826;5.850;2023-07-29T07:26:36;19.94;81.04
67054;SHT31;53960;51.826;5.850;2023-07-29T07:29:01;19.97;81.58
67054;SHT31;53960;51.826;5.850;2023-07-29T07:31:27;19.93;81.57
67054;SHT31;53960;51.826;5.850;2023-07-29T07:33:52;19.92;82.05
67054;SHT31;53960;51.826;5.850;2023-07-29T07:36:17;19.92;81.49
67054;SHT31;53960;51.826;5.850;2023-07-29T07:38:43;19.92;81.81
67054;SHT31;53960;51.826;5.850;2023-07-29T07:41:08;19.94;81.92
67054;SHT31;53960;51.826;5.850;2023-07-29T07:43:33;20.00;81.62
67054;SHT31;53960;51.826;5.850;2023-07-29T07:46:00;20.08;81.46
67054;SHT31;53960;51.826;5.850;2023-07-29T07:48:26;20.14;81.32
67054;SHT31;53960;51.826;5.850;2023-07-29T07:50:52;20.14;81.59
67054;SHT31;53960;51.826;5.850;2023-07-29T07:53:17;20.14;81.84
67054;SHT31;53960;51.826;5.850;2023-07-29T07:55:42;20.21;81.28
67054;SHT31;53960;51.826;5.850;2023-07-29T07:58:08;20.27;81.38
67054;SHT31;53960;51.826;5.850;2023-07-29T08:00:33;20.29;81.37
67054;SHT31;53960;51.826;5.850;2023-07-29T08:02:58;20.36;81.08
67054;SHT31;53960;51.826;5.850;2023-07-29T08:05:24;20.31;80.88
67054;SHT31;53960;51.826;5.850;2023-07-29T08:07:49;20.29;80.66
67054;SHT31;53960;51.826;5.850;2023-07-29T08:10:14;20.19;80.98
67054;SHT31;53960;51.826;5.850;2023-07-29T08:12:39;20.13;81.34
67054;SHT31;53960;51.826;5.850;2023-07-29T08:15:05;20.13;81.53
67054;SHT31;53960;51.826;5.850;2023-07-29T08:17:31;20.13;81.75
67054;SHT31;53960;51.826;5.850;2023-07-29T08:19:56;20.26;81.40
67054;SHT31;53960;51.826;5.850;2023-07-29T08:22:21;20.39;80.67
67054;SHT31;53960;51.826;5.850;2023-07-29T08:24:47;20.48;80.25
67054;SHT31;53960;51.826;5.850;2023-07-29T08:27:12;20.44;80.35
67054;SHT31;53960;51.826;5.850;2023-07-29T08:29:37;20.63;80.47
67054;SHT31;53960;51.826;5.850;2023-07-29T08:32:03;20.68;79.99
67054;SHT31;53960;51.826;5.850;2023-07-29T08:34:28;20.75;80.16
67054;SHT31;53960;51.826;5.850;2023-07-29T08:36:53;20.74;80.14
67054;SHT31;53960;51.826;5.850;2023-07-29T08:39:19;20.87;79.97
67054;SHT31;53960;51.826;5.850;2023-07-29T08:41:54;20.89;79.89
67054;SHT31;53960;51.826;5.850;2023-07-29T08:44:23;20.84;79.96
67054;SHT31;53960;51.826;5.850;2023-07-29T08:46:49;20.79;80.10
67054;SHT31;53960;51.826;5.850;2023-07-29T08:49:16;20.74;79.52
67054;SHT31;53960;51.826;5.850;2023-07-29T08:51:45;20.78;79.84
67054;SHT31;53960;51.826;5.850;2023-07-29T08:54:11;20.79;79.32
67054;SHT31;53960;51.826;5.850;2023-07-29T08:56:37;20.84;79.29
67054;SHT31;53960;51.826;5.850;2023-07-29T08:59:04;20.84;79.42
67054;SHT31;53960;51.826;5.850;2023-07-29T09:01:30;20.84;80.35
67054;SHT31;53960;51.826;5.850;2023-07-29T09:03:56;20.72;80.13
67054;SHT31;53960;51.826;5.850;2023-07-29T09:06:21;20.71;79.78
67054;SHT31;53960;51.826;5.850;2023-07-29T09:08:49;20.68;79.48
67054;SHT31;53960;51.826;5.850;2023-07-29T09:11:16;20.64;79.76
67054;SHT31;53960;51.826;5.850;2023-07-29T09:13:42;20.79;79.44
67054;SHT31;53960;51.826;5.850;2023-07-29T09:16:08;20.88;78.68
67054;SHT31;53960;51.826;5.850;2023-07-29T09:18:34;21.02;78.77
67054;SHT31;53960;51.826;5.850;2023-07-29T09:20:59;21.10;78.70
67054;SHT31;53960;51.826;5.850;2023-07-29T09:23:26;21.18;78.53
67054;SHT31;53960;51.826;5.850;2023-07-29T09:26:03;21.29;78.50
67054;SHT31;53960;51.826;5.850;2023-07-29T09:28:33;21.39;78.80
67054;SHT31;53960;51.826;5.850;2023-07-29T09:30:58;21.43;78.53
67054;SHT31;53960;51.826;5.850;2023-07-29T09:33:26;21.43;78.16
67054;SHT31;53960;51.826;5.850;2023-07-29T09:35:51;21.54;77.39
67054;SHT31;53960;51.826;5.850;2023-07-29T09:38:17;21.64;77.23
67054;SHT31;53960;51.826;5.850;2023-07-29T09:40:42;21.74;76.96
67054;SHT31;53960;51.826;5.850;2023-07-29T09:43:10;21.90;76.31
67054;SHT31;53960;51.826;5.850;2023-07-29T09:45:36;22.17;75.75
67054;SHT31;53960;51.826;5.850;2023-07-29T09:48:03;22.41;74.95
67054;SHT31;53960;51.826;5.850;2023-07-29T09:50:30;22.39;74.32
67054;SHT31;53960;51.826;5.850;2023-07-29T09:52:56;22.32;74.61
67054;SHT31;53960;51.826;5.850;2023-07-29T09:55:26;22.15;74.36
67054;SHT31;53960;51.826;5.850;2023-07-29T09:57:59;22.11;76.06
67054;SHT31;53960;51.826;5.850;2023-07-29T10:00:31;22.15;74.88
67054;SHT31;53960;51.826;5.850;2023-07-29T10:02:57;22.25;74.94
67054;SHT31;53960;51.826;5.850;2023-07-29T10:05:26;22.35;74.41
67054;SHT31;53960;51.826;5.850;2023-07-29T10:07:52;22.41;74.71
67054;SHT31;53960;51.826;5.850;2023-07-29T10:10:19;22.48;74.38
67054;SHT31;53960;51.826;5.850;2023-07-29T10:12:45;22.44;74.97
67054;SHT31;53960;51.826;5.850;2023-07-29T10:15:11;22.38;75.12
67054;SHT31;53960;51.826;5.850;2023-07-29T10:17:37;22.45;75.22
67054;SHT31;53960;51.826;5.850;2023-07-29T10:20:05;22.44;74.80
67054;SHT31;53960;51.826;5.850;2023-07-29T10:22:42;22.34;74.27
67054;SHT31;53960;51.826;5.850;2023-07-29T10:25:13;22.35;74.47
67054;SHT31;53960;51.826;5.850;2023-07-29T10:27:46;22.46;74.23
67054;SHT31;53960;51.826;5.850;2023-07-29T10:30:12;22.45;73.75
67054;SHT31;53960;51.826;5.850;2023-07-29T10:32:45;22.57;73.53
67054;SHT31;53960;51.826;5.850;2023-07-29T10:35:13;22.72;73.13
67054;SHT31;53960;51.826;5.850;2023-07-29T10:37:39;22.80;73.15
67054;SHT31;53960;51.826;5.850;2023-07-29T10:40:09;22.70;72.79
67054;SHT31;53960;51.826;5.850;2023-07-29T10:42:36;22.60;73.61
67054;SHT31;53960;51.826;5.850;2023-07-29T10:45:17;22.57;72.67
67054;SHT31;53960;51.826;5.850;2023-07-29T10:47:44;22.57;73.37
67054;SHT31;53960;51.826;5.850;2023-07-29T10:50:17;22.56;72.85
67054;SHT31;53960;51.826;5.850;2023-07-29T10:52:43;22.62;73.08
67054;SHT31;53960;51.826;5.850;2023-07-29T10:55:25;22.75;73.00
67054;SHT31;53960;51.826;5.850;2023-07-29T10:57:51;22.86;72.57
67054;SHT31;53960;51.826;5.850;2023-07-29T11:00:19;23.00;72.59
67054;SHT31;53960;51.826;5.850;2023-07-29T11:02:56;23.14;72.18
67054;SHT31;53960;51.826;5.850;2023-07-29T11:05:24;23.54;71.08
67054;SHT31;53960;51.826;5.850;2023-07-29T11:07:49;23.79;70.91
67054;SHT31;53960;51.826;5.850;2023-07-29T11:10:15;24.03;69.82
67054;SHT31;53960;51.826;5.850;2023-07-29T11:12:48;24.12;69.25
67054;SHT31;53960;51.826;5.850;2023-07-29T11:15:20;24.03;70.10
67054;SHT31;53960;51.826;5.850;2023-07-29T11:18:00;24.26;69.87
67054;SHT31;53960;51.826;5.850;2023-07-29T11:20:27;24.12;68.94
67054;SHT31;53960;51.826;5.850;2023-07-29T11:22:54;24.05;69.58
67054;SHT31;53960;51.826;5.850;2023-07-29T11:25:21;23.90;69.39
67054;SHT31;53960;51.826;5.850;2023-07-29T11:27:47;23.73;68.90
67054;SHT31;53960;51.826;5.850;2023-07-29T11:30:14;23.52;69.82
67054;SHT31;53960;51.826;5.850;2023-07-29T11:32:42;23.41;70.72
67054;SHT31;53960;51.826;5.850;2023-07-29T11:35:15;23.27;71.10
67054;SHT31;53960;51.826;5.850;2023-07-29T11:37:43;23.10;72.04
67054;SHT31;53960;51.826;5.850;2023-07-29T11:40:08;22.99;71.97
67054;SHT31;53960;51.826;5.850;2023-07-29T11:42:37;22.87;72.96
67054;SHT31;53960;51.826;5.850;2023-07-29T11:45:03;22.73;74.00
67054;SHT31;53960;51.826;5.850;2023-07-29T11:47:32;22.62;75.52
67054;SHT31;53960;51.826;5.850;2023-07-29T11:50:01;22.53;74.87
67054;SHT31;53960;51.826;5.850;2023-07-29T11:52:27;22.42;74.98
67054;SHT31;53960;51.826;5.850;2023-07-29T11:54:53;22.34;74.47
67054;SHT31;53960;51.826;5.850;2023-07-29T11:57:18;22.18;74.27
67054;SHT31;53960;51.826;5.850;2023-07-29T11:59:46;22.02;76.36
67054;SHT31;53960;51.826;5.850;2023-07-29T12:02:21;21.49;79.84
67054;SHT31;53960;51.826;5.850;2023-07-29T12:04:48;20.91;82.41
67054;SHT31;53960;51.826;5.850;2023-07-29T12:07:16;20.14;84.14
67054;SHT31;53960;51.826;5.850;2023-07-29T12:09:42;19.82;85.27
67054;SHT31;53960;51.826;5.850;2023-07-29T12:12:08;19.62;85.72
67054;SHT31;53960;51.826;5.850;2023-07-29T12:14:35;19.52;85.73
67054;SHT31;53960;51.826;5.850;2023-07-29T12:17:01;19.52;85.08
67054;SHT31;53960;51.826;5.850;2023-07-29T12:19:37;19.51;86.09
67054;SHT31;53960;51.826;5.850;2023-07-29T12:22:04;19.51;86.24
67054;SHT31;53960;51.826;5.850;2023-07-29T12:24:31;19.55;86.80
67054;SHT31;53960;51.826;5.850;2023-07-29T12:26:57;19.58;86.30
67054;SHT31;53960;51.826;5.850;2023-07-29T12:29:22;19.52;86.92
67054;SHT31;53960;51.826;5.850;2023-07-29T12:31:49;19.54;87.52
67054;SHT31;53960;51.826;5.850;2023-07-29T12:34:21;19.66;87.08
67054;SHT31;53960;51.826;5.850;2023-07-29T12:36:51;19.78;87.41
67054;SHT31;53960;51.826;5.850;2023-07-29T12:39:21;19.99;87.38
67054;SHT31;53960;51.826;5.850;2023-07-29T12:41:48;20.10;86.21
67054;SHT31;53960;51.826;5.850;2023-07-29T12:44:14;20.16;86.60
67054;SHT31;53960;51.826;5.850;2023-07-29T12:46:40;20.27;86.56
67054;SHT31;53960;51.826;5.850;2023-07-29T12:49:05;20.30;85.90
67054;SHT31;53960;51.826;5.850;2023-07-29T12:51:31;20.33;85.22
67054;SHT31;53960;51.826;5.850;2023-07-29T12:53:57;20.31;86.40
67054;SHT31;53960;51.826;5.850;2023-07-29T12:56:22;20.30;86.15
67054;SHT31;53960;51.826;5.850;2023-07-29T12:58:47;20.37;86.13
67054;SHT31;53960;51.826;5.850;2023-07-29T13:01:13;20.50;86.61
67054;SHT31;53960;51.826;5.850;2023-07-29T13:03:42;20.64;86.66
67054;SHT31;53960;51.826;5.850;2023-07-29T13:06:07;20.55;86.94
67054;SHT31;53960;51.826;5.850;2023-07-29T13:08:33;20.52;87.37
67054;SHT31;53960;51.826;5.850;2023-07-29T13:10:58;20.41;87.28
67054;SHT31;53960;51.826;5.850;2023-07-29T13:13:24;20.45;86.63
67054;SHT31;53960;51.826;5.850;2023-07-29T13:15:49;20.41;86.87
67054;SHT31;53960;51.826;5.850;2023-07-29T13:18:14;20.41;87.28
67054;SHT31;53960;51.826;5.850;2023-07-29T13:20:40;20.43;87.24
67054;SHT31;53960;51.826;5.850;2023-07-29T13:23:05;20.51;88.16
67054;SHT31;53960;51.826;5.850;2023-07-29T13:25:30;20.88;87.79
67054;SHT31;53960;51.826;5.850;2023-07-29T13:27:56;21.00;87.79
67054;SHT31;53960;51.826;5.850;2023-07-29T13:30:21;20.91;87.18
67054;SHT31;53960;51.826;5.850;2023-07-29T13:32:46;20.78;86.91
67054;SHT31;53960;51.826;5.850;2023-07-29T13:35:12;20.94;87.55
67054;SHT31;53960;51.826;5.850;2023-07-29T13:37:37;20.87;86.19
67054;SHT31;53960;51.826;5.850;2023-07-29T13:40:03;21.03;87.43
67054;SHT31;53960;51.826;5.850;2023-07-29T13:42:28;21.18;88.25
67054;SHT31;53960;51.826;5.850;2023-07-29T13:44:54;21.43;87.40
67054;SHT31;53960;51.826;5.850;2023-07-29T13:47:19;21.66;87.26
67054;SHT31;53960;51.826;5.850;2023-07-29T13:49:44;21.77;86.04
67054;SHT31;53960;51.826;5.850;2023-07-29T13:52:09;21.80;87.26
67054;SHT31;53960;51.826;5.850;2023-07-29T13:54:35;21.78;87.33
67054;SHT31;53960;51.826;5.850;2023-07-29T13:57:00;21.73;86.13
67054;SHT31;53960;51.826;5.850;2023-07-29T13:59:25;21.80;84.99
67054;SHT31;53960;51.826;5.850;2023-07-29T14:01:51;21.71;84.73
67054;SHT31;53960;51.826;5.850;2023-07-29T14:04:16;21.63;85.24
67054;SHT31;53960;51.826;5.850;2023-07-29T14:06:41;21.91;85.36
67054;SHT31;53960;51.826;5.850;2023-07-29T14:09:07;22.00;86.44
67054;SHT31;53960;51.826;5.850;2023-07-29T14:11:32;22.24;86.44
67054;SHT31;53960;51.826;5.850;2023-07-29T14:13:58;22.38;86.03
67054;SHT31;53960;51.826;5.850;2023-07-29T14:16:23;22.56;86.21
67054;SHT31;53960;51.826;5.850;2023-07-29T14:18:48;22.76;85.08
67054;SHT31;53960;51.826;5.850;2023-07-29T14:21:14;22.84;85.26
67054;SHT31;53960;51.826;5.850;2023-07-29T14:23:40;22.51;82.87
67054;SHT31;53960;51.826;5.850;2023-07-29T14:26:06;22.48;82.58
67054;SHT31;53960;51.826;5.850;2023-07-29T14:28:35;22.77;83.77
67054;SHT31;53960;51.826;5.850;2023-07-29T14:31:00;22.69;83.84
67054;SHT31;53960;51.826;5.850;2023-07-29T14:33:25;22.51;83.77
67054;SHT31;53960;51.826;5.850;2023-07-29T14:35:51;22.73;82.95
67054;SHT31;53960;51.826;5.850;2023-07-29T14:38:16;22.79;81.48
67054;SHT31;53960;51.826;5.850;2023-07-29T14:40:42;22.67;81.33
67054;SHT31;53960;51.826;5.850;2023-07-29T14:43:07;22.73;81.75
67054;SHT31;53960;51.826;5.850;2023-07-29T14:45:32;22.75;81.28
67054;SHT31;53960;51.826;5.850;2023-07-29T14:47:58;22.79;81.06
67054;SHT31;53960;51.826;5.850;2023-07-29T14:50:23;22.82;82.48
67054;SHT31;53960;51.826;5.850;2023-07-29T14:52:48;22.87;82.35
67054;SHT31;53960;51.826;5.850;2023-07-29T14:55:14;23.18;82.40
67054;SHT31;53960;51.826;5.850;2023-07-29T14:57:39;23.33;81.08
67054;SHT31;53960;51.826;5.850;2023-07-29T15:00:09;23.44;79.29
67054;SHT31;53960;51.826;5.850;2023-07-29T15:02:35;23.52;79.60
67054;SHT31;53960;51.826;5.850;2023-07-29T15:05:00;23.61;79.41
67054;SHT31;53960;51.826;5.850;2023-07-29T15:07:25;23.45;78.67
67054;SHT31;53960;51.826;5.850;2023-07-29T15:09:51;23.35;79.65
67054;SHT31;53960;51.826;5.850;2023-07-29T15:12:16;23.33;80.29
67054;SHT31;53960;51.826;5.850;2023-07-29T15:14:42;23.52;79.73
67054;SHT31;53960;51.826;5.850;2023-07-29T15:17:07;23.72;79.62
67054;SHT31;53960;51.826;5.850;2023-07-29T15:19:32;23.48;79.85
67054;SHT31;53960;51.826;5.850;2023-07-29T15:21:58;23.25;80.39
67054;SHT31;53960;51.826;5.850;2023-07-29T15:24:23;23.11;79.24
67054;SHT31;53960;51.826;5.850;2023-07-29T15:26:48;22.90;79.88
67054;SHT31;53960;51.826;5.850;2023-07-29T15:29:13;22.73;79.07